Terminal Aerodrome Forecast
Issued by NWS St Louis, MO

Home | Current Version | Previous Version | Text Only | Print | Product List | Glossary On
Versions: 1 2 3 4 5 6 7 8 9 10 11 12 13 14 15 16 17 18 19 20 21
000
FTUS43 KLSX 241700
TAFCOU
TAF
KCOU 241739Z 2418/2518 24010KT P6SM SKC
     FM250100 22008KT P6SM BKN050
     FM250800 22010KT P6SM -RA OVC035
     FM251000 26012KT 4SM -RA BR OVC012
     FM251400 29012KT P6SM VCSH OVC012=

USA.gov is the U.S. government's official web portal to all federal, state and local government web resources and services.